sensor_id;sensor_type;location;lat;lon;timestamp;P1;durP1;ratioP1;P2;durP2;ratioP2
3999;SDS011;2014;53.604;10.112;2022-12-20T00:00:54;7.23;;;6.63;;
3999;SDS011;2014;53.604;10.112;2022-12-20T00:03:23;8.80;;;6.77;;
3999;SDS011;2014;53.604;10.112;2022-12-20T00:05:50;8.57;;;6.70;;
3999;SDS011;2014;53.604;10.112;2022-12-20T00:08:18;8.57;;;6.87;;
3999;SDS011;2014;53.604;10.112;2022-12-20T00:10:46;7.13;;;6.63;;
3999;SDS011;2014;53.604;10.112;2022-12-20T00:13:13;7.80;;;6.33;;
3999;SDS011;2014;53.604;10.112;2022-12-20T00:15:40;6.70;;;6.20;;
3999;SDS011;2014;53.604;10.112;2022-12-20T00:18:08;6.70;;;5.40;;
3999;SDS011;2014;53.604;10.112;2022-12-20T00:20:37;9.33;;;6.47;;
3999;SDS011;2014;53.604;10.112;2022-12-20T00:23:04;6.67;;;6.17;;
3999;SDS011;2014;53.604;10.112;2022-12-20T00:25:32;7.10;;;6.50;;
3999;SDS011;2014;53.604;10.112;2022-12-20T00:27:59;7.40;;;6.67;;
3999;SDS011;2014;53.604;10.112;2022-12-20T00:30:28;6.03;;;5.53;;
3999;SDS011;2014;53.604;10.112;2022-12-20T00:32:55;7.13;;;6.60;;
3999;SDS011;2014;53.604;10.112;2022-12-20T00:35:22;5.50;;;5.10;;
3999;SDS011;2014;53.604;10.112;2022-12-20T00:37:51;10.73;;;7.60;;
3999;SDS011;2014;53.604;10.112;2022-12-20T00:40:19;6.90;;;6.17;;
3999;SDS011;2014;53.604;10.112;2022-12-20T00:42:46;8.13;;;6.77;;
3999;SDS011;2014;53.604;10.112;2022-12-20T00:45:13;6.70;;;6.00;;
3999;SDS011;2014;53.604;10.112;2022-12-20T00:47:41;6.63;;;6.20;;
3999;SDS011;2014;53.604;10.112;2022-12-20T00:50:08;14.63;;;6.10;;
3999;SDS011;2014;53.604;10.112;2022-12-20T00:52:35;6.17;;;5.80;;
3999;SDS011;2014;53.604;10.112;2022-12-20T00:55:04;5.40;;;5.10;;
3999;SDS011;2014;53.604;10.112;2022-12-20T00:57:32;6.00;;;5.60;;
3999;SDS011;2014;53.604;10.112;2022-12-20T00:59:59;6.87;;;5.80;;
3999;SDS011;2014;53.604;10.112;2022-12-20T01:02:26;7.60;;;6.03;;
3999;SDS011;2014;53.604;10.112;2022-12-20T01:04:54;4.93;;;4.60;;
3999;SDS011;2014;53.604;10.112;2022-12-20T01:07:21;7.37;;;6.70;;
3999;SDS011;2014;53.604;10.112;2022-12-20T01:09:48;5.67;;;5.40;;
3999;SDS011;2014;53.604;10.112;2022-12-20T01:12:17;6.70;;;5.17;;
3999;SDS011;2014;53.604;10.112;2022-12-20T01:14:45;5.33;;;5.03;;
3999;SDS011;2014;53.604;10.112;2022-12-20T01:17:12;6.17;;;5.30;;
3999;SDS011;2014;53.604;10.112;2022-12-20T01:19:39;6.33;;;6.00;;
3999;SDS011;2014;53.604;10.112;2022-12-20T01:22:07;6.77;;;6.07;;
3999;SDS011;2014;53.604;10.112;2022-12-20T01:24:34;6.50;;;5.90;;
3999;SDS011;2014;53.604;10.112;2022-12-20T01:27:01;6.27;;;5.50;;
3999;SDS011;2014;53.604;10.112;2022-12-20T01:29:30;7.00;;;5.77;;
3999;SDS011;2014;53.604;10.112;2022-12-20T01:31:57;6.33;;;5.43;;
3999;SDS011;2014;53.604;10.112;2022-12-20T01:34:25;6.10;;;5.50;;
3999;SDS011;2014;53.604;10.112;2022-12-20T01:36:52;6.57;;;6.03;;
3999;SDS011;2014;53.604;10.112;2022-12-20T01:39:20;5.80;;;5.30;;
3999;SDS011;2014;53.604;10.112;2022-12-20T01:41:47;6.80;;;6.17;;
3999;SDS011;2014;53.604;10.112;2022-12-20T01:47:01;6.07;;;5.60;;
3999;SDS011;2014;53.604;10.112;2022-12-20T01:49:30;6.80;;;5.70;;
3999;SDS011;2014;53.604;10.112;2022-12-20T01:51:59;6.50;;;5.90;;
3999;SDS011;2014;53.604;10.112;2022-12-20T01:54:29;6.13;;;5.67;;
3999;SDS011;2014;53.604;10.112;2022-12-20T01:56:59;5.87;;;5.37;;
3999;SDS011;2014;53.604;10.112;2022-12-20T01:59:28;5.57;;;5.03;;
3999;SDS011;2014;53.604;10.112;2022-12-20T02:01:56;8.20;;;6.13;;
3999;SDS011;2014;53.604;10.112;2022-12-20T02:04:25;6.20;;;5.53;;
3999;SDS011;2014;53.604;10.112;2022-12-20T02:06:52;7.27;;;5.30;;
3999;SDS011;2014;53.604;10.112;2022-12-20T02:09:20;5.70;;;5.13;;
3999;SDS011;2014;53.604;10.112;2022-12-20T02:11:50;6.23;;;5.70;;
3999;SDS011;2014;53.604;10.112;2022-12-20T02:14:28;5.77;;;5.03;;
3999;SDS011;2014;53.604;10.112;2022-12-20T02:17:00;5.27;;;4.87;;
3999;SDS011;2014;53.604;10.112;2022-12-20T02:19:35;5.83;;;5.33;;
3999;SDS011;2014;53.604;10.112;2022-12-20T02:22:13;6.17;;;5.77;;
3999;SDS011;2014;53.604;10.112;2022-12-20T02:24:46;6.77;;;6.13;;
3999;SDS011;2014;53.604;10.112;2022-12-20T02:30:08;6.03;;;5.53;;
3999;SDS011;2014;53.604;10.112;2022-12-20T02:32:37;4.67;;;4.33;;
3999;SDS011;2014;53.604;10.112;2022-12-20T02:35:05;6.00;;;5.60;;
3999;SDS011;2014;53.604;10.112;2022-12-20T02:37:34;5.40;;;5.00;;
3999;SDS011;2014;53.604;10.112;2022-12-20T02:40:02;5.37;;;5.07;;
3999;SDS011;2014;53.604;10.112;2022-12-20T02:42:30;5.60;;;5.20;;
3999;SDS011;2014;53.604;10.112;2022-12-20T02:45:00;5.33;;;4.83;;
3999;SDS011;2014;53.604;10.112;2022-12-20T02:47:44;6.80;;;4.10;;
3999;SDS011;2014;53.604;10.112;2022-12-20T02:50:12;4.63;;;4.30;;
3999;SDS011;2014;53.604;10.112;2022-12-20T02:52:41;6.00;;;5.13;;
3999;SDS011;2014;53.604;10.112;2022-12-20T02:55:08;4.40;;;4.10;;
3999;SDS011;2014;53.604;10.112;2022-12-20T02:57:37;5.33;;;5.00;;
3999;SDS011;2014;53.604;10.112;2022-12-20T03:00:08;8.10;;;4.90;;
3999;SDS011;2014;53.604;10.112;2022-12-20T03:02:36;5.57;;;5.27;;
3999;SDS011;2014;53.604;10.112;2022-12-20T03:05:20;5.30;;;4.80;;
3999;SDS011;2014;53.604;10.112;2022-12-20T03:07:48;7.20;;;4.50;;
3999;SDS011;2014;53.604;10.112;2022-12-20T03:10:16;4.47;;;4.17;;
3999;SDS011;2014;53.604;10.112;2022-12-20T03:12:44;4.83;;;4.50;;
3999;SDS011;2014;53.604;10.112;2022-12-20T03:15:11;6.87;;;4.80;;
3999;SDS011;2014;53.604;10.112;2022-12-20T03:17:39;4.03;;;3.83;;
3999;SDS011;2014;53.604;10.112;2022-12-20T03:20:06;5.83;;;5.33;;
3999;SDS011;2014;53.604;10.112;2022-12-20T03:22:36;4.67;;;4.47;;
3999;SDS011;2014;53.604;10.112;2022-12-20T03:25:04;4.20;;;3.93;;
3999;SDS011;2014;53.604;10.112;2022-12-20T03:27:32;4.30;;;4.10;;
3999;SDS011;2014;53.604;10.112;2022-12-20T03:29:59;4.37;;;3.97;;
3999;SDS011;2014;53.604;10.112;2022-12-20T03:32:26;4.10;;;3.80;;
3999;SDS011;2014;53.604;10.112;2022-12-20T03:34:54;3.67;;;3.50;;
3999;SDS011;2014;53.604;10.112;2022-12-20T03:37:21;5.10;;;4.43;;
3999;SDS011;2014;53.604;10.112;2022-12-20T03:39:50;4.63;;;4.33;;
3999;SDS011;2014;53.604;10.112;2022-12-20T03:42:17;6.67;;;5.20;;
3999;SDS011;2014;53.604;10.112;2022-12-20T03:44:45;4.37;;;4.17;;
3999;SDS011;2014;53.604;10.112;2022-12-20T03:47:12;5.17;;;4.80;;
3999;SDS011;2014;53.604;10.112;2022-12-20T03:49:39;7.83;;;5.13;;
3999;SDS011;2014;53.604;10.112;2022-12-20T03:52:08;5.10;;;4.80;;
3999;SDS011;2014;53.604;10.112;2022-12-20T03:54:36;10.80;;;4.53;;
3999;SDS011;2014;53.604;10.112;2022-12-20T03:57:04;4.60;;;4.20;;
3999;SDS011;2014;53.604;10.112;2022-12-20T03:59:32;4.90;;;4.50;;
3999;SDS011;2014;53.604;10.112;2022-12-20T04:01:59;4.60;;;4.20;;
3999;SDS011;2014;53.604;10.112;2022-12-20T04:04:27;6.30;;;4.73;;
3999;SDS011;2014;53.604;10.112;2022-12-20T04:06:54;5.07;;;4.67;;
3999;SDS011;2014;53.604;10.112;2022-12-20T04:09:21;5.23;;;4.90;;
3999;SDS011;2014;53.604;10.112;2022-12-20T04:11:48;7.90;;;4.87;;
3999;SDS011;2014;53.604;10.112;2022-12-20T04:14:17;4.67;;;4.47;;
3999;SDS011;2014;53.604;10.112;2022-12-20T04:16:45;4.20;;;3.90;;
3999;SDS011;2014;53.604;10.112;2022-12-20T04:19:12;4.60;;;4.33;;
3999;SDS011;2014;53.604;10.112;2022-12-20T04:21:39;6.60;;;4.70;;
3999;SDS011;2014;53.604;10.112;2022-12-20T04:24:07;4.20;;;3.93;;
3999;SDS011;2014;53.604;10.112;2022-12-20T04:26:34;5.10;;;4.27;;
3999;SDS011;2014;53.604;10.112;2022-12-20T04:29:01;3.60;;;3.40;;
3999;SDS011;2014;53.604;10.112;2022-12-20T04:31:30;4.87;;;4.30;;
3999;SDS011;2014;53.604;10.112;2022-12-20T04:33:57;5.77;;;4.27;;
3999;SDS011;2014;53.604;10.112;2022-12-20T04:36:25;4.37;;;4.07;;
3999;SDS011;2014;53.604;10.112;2022-12-20T04:38:52;4.33;;;3.93;;
3999;SDS011;2014;53.604;10.112;2022-12-20T04:41:20;7.03;;;3.90;;
3999;SDS011;2014;53.604;10.112;2022-12-20T04:43:48;4.90;;;4.50;;
3999;SDS011;2014;53.604;10.112;2022-12-20T04:46:16;4.50;;;3.60;;
3999;SDS011;2014;53.604;10.112;2022-12-20T04:48:44;4.73;;;3.80;;
3999;SDS011;2014;53.604;10.112;2022-12-20T04:51:12;4.87;;;4.57;;
3999;SDS011;2014;53.604;10.112;2022-12-20T04:53:39;5.40;;;4.37;;
3999;SDS011;2014;53.604;10.112;2022-12-20T04:56:12;6.10;;;5.50;;
3999;SDS011;2014;53.604;10.112;2022-12-20T04:58:40;7.97;;;4.93;;
3999;SDS011;2014;53.604;10.112;2022-12-20T05:01:07;5.23;;;4.77;;
3999;SDS011;2014;53.604;10.112;2022-12-20T05:03:35;5.33;;;4.77;;
3999;SDS011;2014;53.604;10.112;2022-12-20T05:06:04;5.67;;;5.17;;
3999;SDS011;2014;53.604;10.112;2022-12-20T05:08:31;8.53;;;5.50;;
3999;SDS011;2014;53.604;10.112;2022-12-20T05:10:59;13.37;;;5.30;;
3999;SDS011;2014;53.604;10.112;2022-12-20T05:13:27;5.63;;;5.20;;
3999;SDS011;2014;53.604;10.112;2022-12-20T05:15:54;6.60;;;6.03;;
3999;SDS011;2014;53.604;10.112;2022-12-20T05:18:22;6.93;;;6.23;;
3999;SDS011;2014;53.604;10.112;2022-12-20T05:20:50;6.17;;;5.67;;
3999;SDS011;2014;53.604;10.112;2022-12-20T05:23:39;6.00;;;5.50;;
3999;SDS011;2014;53.604;10.112;2022-12-20T05:26:23;6.23;;;5.83;;
3999;SDS011;2014;53.604;10.112;2022-12-20T05:28:51;6.00;;;5.20;;
3999;SDS011;2014;53.604;10.112;2022-12-20T05:31:19;10.20;;;6.00;;
3999;SDS011;2014;53.604;10.112;2022-12-20T05:33:46;6.67;;;6.03;;
3999;SDS011;2014;53.604;10.112;2022-12-20T05:36:14;5.07;;;4.80;;
3999;SDS011;2014;53.604;10.112;2022-12-20T05:38:42;5.17;;;4.77;;
3999;SDS011;2014;53.604;10.112;2022-12-20T05:41:10;7.10;;;5.90;;
3999;SDS011;2014;53.604;10.112;2022-12-20T05:43:37;6.90;;;6.40;;
3999;SDS011;2014;53.604;10.112;2022-12-20T05:46:04;7.30;;;6.70;;
3999;SDS011;2014;53.604;10.112;2022-12-20T05:48:32;8.73;;;7.83;;
3999;SDS011;2014;53.604;10.112;2022-12-20T05:50:59;16.77;;;10.53;;
3999;SDS011;2014;53.604;10.112;2022-12-20T05:53:26;6.97;;;6.07;;
3999;SDS011;2014;53.604;10.112;2022-12-20T05:55:55;6.17;;;5.67;;
3999;SDS011;2014;53.604;10.112;2022-12-20T05:58:22;6.50;;;6.00;;
3999;SDS011;2014;53.604;10.112;2022-12-20T06:00:50;6.20;;;5.73;;
3999;SDS011;2014;53.604;10.112;2022-12-20T06:03:17;5.23;;;4.90;;
3999;SDS011;2014;53.604;10.112;2022-12-20T06:05:44;7.10;;;5.50;;
3999;SDS011;2014;53.604;10.112;2022-12-20T06:08:12;6.27;;;5.73;;
3999;SDS011;2014;53.604;10.112;2022-12-20T06:10:40;6.73;;;6.03;;
3999;SDS011;2014;53.604;10.112;2022-12-20T06:13:09;8.20;;;5.97;;
3999;SDS011;2014;53.604;10.112;2022-12-20T06:15:36;14.10;;;12.60;;
3999;SDS011;2014;53.604;10.112;2022-12-20T06:18:04;12.20;;;7.17;;
3999;SDS011;2014;53.604;10.112;2022-12-20T06:20:32;9.27;;;5.60;;
3999;SDS011;2014;53.604;10.112;2022-12-20T06:22:59;6.70;;;5.20;;
3999;SDS011;2014;53.604;10.112;2022-12-20T06:25:27;32.27;;;8.27;;
3999;SDS011;2014;53.604;10.112;2022-12-20T06:27:54;7.17;;;6.47;;
3999;SDS011;2014;53.604;10.112;2022-12-20T06:30:23;10.30;;;6.07;;
3999;SDS011;2014;53.604;10.112;2022-12-20T06:32:51;6.00;;;5.60;;
3999;SDS011;2014;53.604;10.112;2022-12-20T06:35:18;6.70;;;5.90;;
3999;SDS011;2014;53.604;10.112;2022-12-20T06:37:45;7.70;;;5.40;;
3999;SDS011;2014;53.604;10.112;2022-12-20T06:40:13;5.67;;;5.47;;
3999;SDS011;2014;53.604;10.112;2022-12-20T06:42:40;6.50;;;5.90;;
3999;SDS011;2014;53.604;10.112;2022-12-20T06:45:08;6.97;;;6.13;;
3999;SDS011;2014;53.604;10.112;2022-12-20T06:47:37;6.40;;;5.87;;
3999;SDS011;2014;53.604;10.112;2022-12-20T06:50:05;6.50;;;5.97;;
3999;SDS011;2014;53.604;10.112;2022-12-20T06:52:32;7.77;;;6.63;;
3999;SDS011;2014;53.604;10.112;2022-12-20T06:54:59;6.70;;;5.30;;
3999;SDS011;2014;53.604;10.112;2022-12-20T06:57:27;6.63;;;6.13;;
3999;SDS011;2014;53.604;10.112;2022-12-20T06:59:54;9.10;;;6.40;;
3999;SDS011;2014;53.604;10.112;2022-12-20T07:02:22;6.53;;;6.00;;
3999;SDS011;2014;53.604;10.112;2022-12-20T07:04:50;5.63;;;5.13;;
3999;SDS011;2014;53.604;10.112;2022-12-20T07:07:18;5.97;;;5.53;;
3999;SDS011;2014;53.604;10.112;2022-12-20T07:09:45;8.63;;;6.97;;
3999;SDS011;2014;53.604;10.112;2022-12-20T07:12:12;7.20;;;6.50;;
3999;SDS011;2014;53.604;10.112;2022-12-20T07:14:40;7.20;;;6.27;;
3999;SDS011;2014;53.604;10.112;2022-12-20T07:17:07;5.40;;;5.00;;
3999;SDS011;2014;53.604;10.112;2022-12-20T07:19:34;6.93;;;6.40;;
3999;SDS011;2014;53.604;10.112;2022-12-20T07:22:03;6.70;;;6.13;;
3999;SDS011;2014;53.604;10.112;2022-12-20T07:24:31;7.47;;;6.87;;
3999;SDS011;2014;53.604;10.112;2022-12-20T07:26:58;6.63;;;6.03;;
3999;SDS011;2014;53.604;10.112;2022-12-20T07:29:26;7.03;;;6.53;;
3999;SDS011;2014;53.604;10.112;2022-12-20T07:31:53;6.67;;;6.07;;
3999;SDS011;2014;53.604;10.112;2022-12-20T07:34:21;9.80;;;5.70;;
3999;SDS011;2014;53.604;10.112;2022-12-20T07:36:48;6.53;;;6.13;;
3999;SDS011;2014;53.604;10.112;2022-12-20T07:39:17;7.30;;;6.60;;
3999;SDS011;2014;53.604;10.112;2022-12-20T07:41:44;7.80;;;5.90;;
3999;SDS011;2014;53.604;10.112;2022-12-20T07:44:12;7.60;;;6.90;;
3999;SDS011;2014;53.604;10.112;2022-12-20T07:46:39;9.10;;;6.70;;
3999;SDS011;2014;53.604;10.112;2022-12-20T07:49:07;8.63;;;6.80;;
3999;SDS011;2014;53.604;10.112;2022-12-20T07:51:36;8.90;;;7.00;;
3999;SDS011;2014;53.604;10.112;2022-12-20T07:54:05;6.73;;;6.10;;
3999;SDS011;2014;53.604;10.112;2022-12-20T07:56:37;7.10;;;6.40;;
3999;SDS011;2014;53.604;10.112;2022-12-20T07:59:05;9.77;;;7.10;;
3999;SDS011;2014;53.604;10.112;2022-12-20T08:01:33;8.20;;;7.30;;
3999;SDS011;2014;53.604;10.112;2022-12-20T08:04:02;6.70;;;6.00;;
3999;SDS011;2014;53.604;10.112;2022-12-20T08:06:30;7.83;;;7.13;;
3999;SDS011;2014;53.604;10.112;2022-12-20T08:08:58;11.60;;;7.30;;
3999;SDS011;2014;53.604;10.112;2022-12-20T08:11:26;9.37;;;7.00;;
3999;SDS011;2014;53.604;10.112;2022-12-20T08:13:56;17.07;;;7.60;;
3999;SDS011;2014;53.604;10.112;2022-12-20T08:16:23;8.70;;;6.67;;
3999;SDS011;2014;53.604;10.112;2022-12-20T08:18:51;8.27;;;7.40;;
3999;SDS011;2014;53.604;10.112;2022-12-20T08:21:18;9.70;;;6.70;;
3999;SDS011;2014;53.604;10.112;2022-12-20T08:23:46;6.67;;;5.97;;
3999;SDS011;2014;53.604;10.112;2022-12-20T08:26:13;7.73;;;7.10;;
3999;SDS011;2014;53.604;10.112;2022-12-20T08:28:41;7.63;;;6.87;;
3999;SDS011;2014;53.604;10.112;2022-12-20T08:31:10;9.60;;;7.77;;
3999;SDS011;2014;53.604;10.112;2022-12-20T08:33:38;9.60;;;7.27;;
3999;SDS011;2014;53.604;10.112;2022-12-20T08:36:06;8.93;;;6.43;;
3999;SDS011;2014;53.604;10.112;2022-12-20T08:38:34;8.33;;;7.30;;
3999;SDS011;2014;53.604;10.112;2022-12-20T08:41:02;7.33;;;6.73;;
3999;SDS011;2014;53.604;10.112;2022-12-20T08:43:29;7.93;;;7.17;;
3999;SDS011;2014;53.604;10.112;2022-12-20T08:45:57;7.27;;;6.60;;
3999;SDS011;2014;53.604;10.112;2022-12-20T08:48:26;7.37;;;6.63;;
3999;SDS011;2014;53.604;10.112;2022-12-20T08:50:57;6.87;;;6.30;;
3999;SDS011;2014;53.604;10.112;2022-12-20T08:53:25;7.07;;;6.47;;
3999;SDS011;2014;53.604;10.112;2022-12-20T08:55:52;7.30;;;6.77;;
3999;SDS011;2014;53.604;10.112;2022-12-20T08:58:20;8.40;;;7.37;;
3999;SDS011;2014;53.604;10.112;2022-12-20T09:00:47;11.77;;;7.20;;
3999;SDS011;2014;53.604;10.112;2022-12-20T09:03:15;12.47;;;7.50;;
3999;SDS011;2014;53.604;10.112;2022-12-20T09:05:44;7.80;;;7.10;;
3999;SDS011;2014;53.604;10.112;2022-12-20T09:08:13;7.27;;;6.57;;
3999;SDS011;2014;53.604;10.112;2022-12-20T09:10:41;7.80;;;7.03;;
3999;SDS011;2014;53.604;10.112;2022-12-20T09:13:08;8.60;;;7.70;;
3999;SDS011;2014;53.604;10.112;2022-12-20T09:15:35;8.37;;;6.80;;
3999;SDS011;2014;53.604;10.112;2022-12-20T09:18:03;7.30;;;6.60;;
3999;SDS011;2014;53.604;10.112;2022-12-20T09:20:30;11.63;;;7.63;;
3999;SDS011;2014;53.604;10.112;2022-12-20T09:22:59;9.00;;;8.00;;
3999;SDS011;2014;53.604;10.112;2022-12-20T09:25:26;8.43;;;7.57;;
3999;SDS011;2014;53.604;10.112;2022-12-20T09:27:54;11.50;;;8.30;;
3999;SDS011;2014;53.604;10.112;2022-12-20T09:30:21;9.40;;;8.23;;
3999;SDS011;2014;53.604;10.112;2022-12-20T09:32:49;7.70;;;7.00;;
3999;SDS011;2014;53.604;10.112;2022-12-20T09:35:16;8.07;;;6.90;;
3999;SDS011;2014;53.604;10.112;2022-12-20T09:37:44;8.80;;;7.17;;
3999;SDS011;2014;53.604;10.112;2022-12-20T09:40:14;9.13;;;6.83;;
3999;SDS011;2014;53.604;10.112;2022-12-20T09:42:43;7.83;;;7.03;;
3999;SDS011;2014;53.604;10.112;2022-12-20T09:45:14;7.60;;;6.80;;
3999;SDS011;2014;53.604;10.112;2022-12-20T09:47:44;10.63;;;8.23;;
3999;SDS011;2014;53.604;10.112;2022-12-20T09:50:13;8.93;;;7.30;;
3999;SDS011;2014;53.604;10.112;2022-12-20T09:53:01;9.20;;;8.27;;
3999;SDS011;2014;53.604;10.112;2022-12-20T09:55:33;6.80;;;6.30;;
3999;SDS011;2014;53.604;10.112;2022-12-20T09:58:09;7.43;;;6.43;;
3999;SDS011;2014;53.604;10.112;2022-12-20T10:00:40;7.70;;;7.00;;
3999;SDS011;2014;53.604;10.112;2022-12-20T10:03:09;7.93;;;7.07;;
3999;SDS011;2014;53.604;10.112;2022-12-20T10:05:41;8.50;;;7.80;;
3999;SDS011;2014;53.604;10.112;2022-12-20T10:08:14;7.97;;;6.70;;
3999;SDS011;2014;53.604;10.112;2022-12-20T10:10:49;7.47;;;6.77;;
3999;SDS011;2014;53.604;10.112;2022-12-20T10:13:22;8.27;;;6.97;;
3999;SDS011;2014;53.604;10.112;2022-12-20T10:15:51;6.63;;;6.13;;
3999;SDS011;2014;53.604;10.112;2022-12-20T10:18:26;6.53;;;6.03;;
3999;SDS011;2014;53.604;10.112;2022-12-20T10:20:56;8.47;;;6.67;;
3999;SDS011;2014;53.604;10.112;2022-12-20T10:23:27;8.80;;;6.80;;
3999;SDS011;2014;53.604;10.112;2022-12-20T10:25:58;8.60;;;6.33;;
3999;SDS011;2014;53.604;10.112;2022-12-20T10:28:26;7.10;;;6.50;;
3999;SDS011;2014;53.604;10.112;2022-12-20T10:30:55;10.20;;;6.30;;
3999;SDS011;2014;53.604;10.112;2022-12-20T10:33:24;9.73;;;6.40;;
3999;SDS011;2014;53.604;10.112;2022-12-20T10:35:53;7.30;;;6.70;;
3999;SDS011;2014;53.604;10.112;2022-12-20T10:38:20;8.00;;;6.50;;
3999;SDS011;2014;53.604;10.112;2022-12-20T10:40:58;7.43;;;6.40;;
3999;SDS011;2014;53.604;10.112;2022-12-20T10:43:27;10.23;;;6.43;;
3999;SDS011;2014;53.604;10.112;2022-12-20T10:45:55;8.10;;;6.03;;
3999;SDS011;2014;53.604;10.112;2022-12-20T10:48:28;7.70;;;7.10;;
3999;SDS011;2014;53.604;10.112;2022-12-20T10:50:57;7.87;;;6.93;;
3999;SDS011;2014;53.604;10.112;2022-12-20T10:53:25;8.57;;;6.70;;
3999;SDS011;2014;53.604;10.112;2022-12-20T10:55:53;7.63;;;6.90;;
3999;SDS011;2014;53.604;10.112;2022-12-20T10:58:27;9.10;;;7.33;;
3999;SDS011;2014;53.604;10.112;2022-12-20T11:01:03;8.40;;;7.17;;
3999;SDS011;2014;53.604;10.112;2022-12-20T11:03:31;6.93;;;5.77;;
3999;SDS011;2014;53.604;10.112;2022-12-20T11:05:59;8.13;;;6.47;;
3999;SDS011;2014;53.604;10.112;2022-12-20T11:08:28;6.33;;;5.77;;
3999;SDS011;2014;53.604;10.112;2022-12-20T11:11:11;7.10;;;6.40;;
3999;SDS011;2014;53.604;10.112;2022-12-20T11:13:40;9.73;;;5.83;;
3999;SDS011;2014;53.604;10.112;2022-12-20T11:16:22;8.80;;;6.80;;
3999;SDS011;2014;53.604;10.112;2022-12-20T11:18:50;6.20;;;5.70;;
3999;SDS011;2014;53.604;10.112;2022-12-20T11:21:22;7.00;;;6.27;;
3999;SDS011;2014;53.604;10.112;2022-12-20T11:23:51;6.80;;;5.47;;
3999;SDS011;2014;53.604;10.112;2022-12-20T11:26:23;8.20;;;6.80;;
3999;SDS011;2014;53.604;10.112;2022-12-20T11:28:58;8.10;;;6.07;;
3999;SDS011;2014;53.604;10.112;2022-12-20T11:31:30;6.97;;;6.30;;
3999;SDS011;2014;53.604;10.112;2022-12-20T11:34:03;6.73;;;6.27;;
3999;SDS011;2014;53.604;10.112;2022-12-20T11:36:38;7.00;;;6.30;;
3999;SDS011;2014;53.604;10.112;2022-12-20T11:39:12;6.93;;;6.50;;
3999;SDS011;2014;53.604;10.112;2022-12-20T11:41:42;7.13;;;6.57;;
3999;SDS011;2014;53.604;10.112;2022-12-20T11:44:14;6.23;;;5.63;;
3999;SDS011;2014;53.604;10.112;2022-12-20T11:46:49;6.23;;;5.67;;
3999;SDS011;2014;53.604;10.112;2022-12-20T11:49:30;5.77;;;5.20;;
3999;SDS011;2014;53.604;10.112;2022-12-20T11:52:03;15.00;;;5.80;;
3999;SDS011;2014;53.604;10.112;2022-12-20T11:54:31;14.90;;;6.80;;
3999;SDS011;2014;53.604;10.112;2022-12-20T11:57:03;9.33;;;7.30;;
3999;SDS011;2014;53.604;10.112;2022-12-20T11:59:34;7.40;;;6.70;;
3999;SDS011;2014;53.604;10.112;2022-12-20T12:02:07;6.90;;;6.30;;
3999;SDS011;2014;53.604;10.112;2022-12-20T12:04:37;6.90;;;6.20;;
3999;SDS011;2014;53.604;10.112;2022-12-20T12:07:07;5.40;;;4.97;;
3999;SDS011;2014;53.604;10.112;2022-12-20T12:09:36;6.53;;;5.83;;
3999;SDS011;2014;53.604;10.112;2022-12-20T12:12:07;5.90;;;5.30;;
3999;SDS011;2014;53.604;10.112;2022-12-20T12:14:41;5.37;;;4.90;;
3999;SDS011;2014;53.604;10.112;2022-12-20T12:17:12;5.07;;;4.77;;
3999;SDS011;2014;53.604;10.112;2022-12-20T12:19:44;5.37;;;5.07;;
3999;SDS011;2014;53.604;10.112;2022-12-20T12:22:13;5.93;;;4.93;;
3999;SDS011;2014;53.604;10.112;2022-12-20T12:24:43;10.47;;;5.00;;
3999;SDS011;2014;53.604;10.112;2022-12-20T12:27:14;5.33;;;4.93;;
3999;SDS011;2014;53.604;10.112;2022-12-20T12:29:43;6.10;;;5.70;;
3999;SDS011;2014;53.604;10.112;2022-12-20T12:32:13;6.57;;;5.10;;
3999;SDS011;2014;53.604;10.112;2022-12-20T12:34:46;5.77;;;4.70;;
3999;SDS011;2014;53.604;10.112;2022-12-20T12:37:31;5.93;;;5.40;;
3999;SDS011;2014;53.604;10.112;2022-12-20T12:40:08;5.30;;;4.97;;
3999;SDS011;2014;53.604;10.112;2022-12-20T12:45:25;6.10;;;5.60;;
3999;SDS011;2014;53.604;10.112;2022-12-20T12:47:54;5.00;;;4.60;;
3999;SDS011;2014;53.604;10.112;2022-12-20T12:50:26;4.73;;;4.50;;
3999;SDS011;2014;53.604;10.112;2022-12-20T12:52:55;9.57;;;5.37;;
3999;SDS011;2014;53.604;10.112;2022-12-20T12:55:39;5.37;;;4.93;;
3999;SDS011;2014;53.604;10.112;2022-12-20T13:00:50;3.73;;;3.53;;
3999;SDS011;2014;53.604;10.112;2022-12-20T13:08:47;5.57;;;5.07;;
3999;SDS011;2014;53.604;10.112;2022-12-20T13:11:27;4.50;;;4.10;;
3999;SDS011;2014;53.604;10.112;2022-12-20T13:14:09;5.40;;;4.90;;
3999;SDS011;2014;53.604;10.112;2022-12-20T13:16:37;5.40;;;5.00;;
3999;SDS011;2014;53.604;10.112;2022-12-20T13:19:11;5.40;;;4.90;;
3999;SDS011;2014;53.604;10.112;2022-12-20T13:21:40;5.70;;;5.20;;
3999;SDS011;2014;53.604;10.112;2022-12-20T13:27:34;4.90;;;4.70;;
3999;SDS011;2014;53.604;10.112;2022-12-20T13:35:46;4.90;;;4.53;;
3999;SDS011;2014;53.604;10.112;2022-12-20T13:38:36;5.17;;;4.93;;
3999;SDS011;2014;53.604;10.112;2022-12-20T13:41:08;6.13;;;4.67;;
3999;SDS011;2014;53.604;10.112;2022-12-20T13:43:42;4.30;;;4.00;;
3999;SDS011;2014;53.604;10.112;2022-12-20T13:46:12;5.70;;;5.30;;
3999;SDS011;2014;53.604;10.112;2022-12-20T13:48:41;6.33;;;5.13;;
3999;SDS011;2014;53.604;10.112;2022-12-20T13:51:14;7.37;;;5.77;;
3999;SDS011;2014;53.604;10.112;2022-12-20T13:53:46;5.67;;;5.37;;
3999;SDS011;2014;53.604;10.112;2022-12-20T13:56:20;6.40;;;5.67;;
3999;SDS011;2014;53.604;10.112;2022-12-20T13:59:03;6.53;;;5.93;;
3999;SDS011;2014;53.604;10.112;2022-12-20T14:01:31;5.47;;;5.07;;
3999;SDS011;2014;53.604;10.112;2022-12-20T14:04:02;6.33;;;5.77;;
3999;SDS011;2014;53.604;10.112;2022-12-20T14:06:31;6.40;;;5.60;;
3999;SDS011;2014;53.604;10.112;2022-12-20T14:08:58;5.67;;;5.17;;
3999;SDS011;2014;53.604;10.112;2022-12-20T14:11:27;6.17;;;5.77;;
3999;SDS011;2014;53.604;10.112;2022-12-20T14:13:55;6.67;;;6.10;;
3999;SDS011;2014;53.604;10.112;2022-12-20T14:16:25;5.63;;;5.10;;
3999;SDS011;2014;53.604;10.112;2022-12-20T14:18:59;5.57;;;5.17;;
3999;SDS011;2014;53.604;10.112;2022-12-20T14:21:27;5.43;;;5.00;;
3999;SDS011;2014;53.604;10.112;2022-12-20T14:23:55;6.67;;;6.07;;
3999;SDS011;2014;53.604;10.112;2022-12-20T14:26:23;5.20;;;4.90;;
3999;SDS011;2014;53.604;10.112;2022-12-20T14:28:51;8.37;;;5.63;;
3999;SDS011;2014;53.604;10.112;2022-12-20T14:31:24;6.50;;;5.93;;
3999;SDS011;2014;53.604;10.112;2022-12-20T14:33:59;5.40;;;4.87;;
3999;SDS011;2014;53.604;10.112;2022-12-20T14:36:28;5.80;;;5.30;;
3999;SDS011;2014;53.604;10.112;2022-12-20T14:38:55;5.60;;;5.20;;
3999;SDS011;2014;53.604;10.112;2022-12-20T14:41:30;10.20;;;6.20;;
3999;SDS011;2014;53.604;10.112;2022-12-20T14:43:59;7.53;;;6.70;;
3999;SDS011;2014;53.604;10.112;2022-12-20T14:46:28;7.43;;;5.10;;
3999;SDS011;2014;53.604;10.112;2022-12-20T14:49:14;5.80;;;5.20;;
3999;SDS011;2014;53.604;10.112;2022-12-20T14:51:43;5.67;;;5.17;;
3999;SDS011;2014;53.604;10.112;2022-12-20T14:54:14;5.97;;;5.23;;
3999;SDS011;2014;53.604;10.112;2022-12-20T14:56:43;5.70;;;5.13;;
3999;SDS011;2014;53.604;10.112;2022-12-20T14:59:12;8.80;;;5.00;;
3999;SDS011;2014;53.604;10.112;2022-12-20T15:01:41;5.70;;;5.20;;
3999;SDS011;2014;53.604;10.112;2022-12-20T15:04:19;6.80;;;5.40;;
3999;SDS011;2014;53.604;10.112;2022-12-20T15:06:48;6.33;;;5.80;;
3999;SDS011;2014;53.604;10.112;2022-12-20T15:09:16;6.10;;;5.60;;
3999;SDS011;2014;53.604;10.112;2022-12-20T15:11:44;5.70;;;5.30;;
3999;SDS011;2014;53.604;10.112;2022-12-20T15:14:17;5.80;;;5.40;;
3999;SDS011;2014;53.604;10.112;2022-12-20T15:16:47;12.53;;;5.03;;
3999;SDS011;2014;53.604;10.112;2022-12-20T15:19:14;5.30;;;4.90;;
3999;SDS011;2014;53.604;10.112;2022-12-20T15:21:42;6.10;;;5.50;;
3999;SDS011;2014;53.604;10.112;2022-12-20T15:24:10;8.70;;;7.20;;
3999;SDS011;2014;53.604;10.112;2022-12-20T15:26:39;6.77;;;6.20;;
3999;SDS011;2014;53.604;10.112;2022-12-20T15:29:09;6.10;;;5.70;;
3999;SDS011;2014;53.604;10.112;2022-12-20T15:31:38;5.27;;;4.90;;
3999;SDS011;2014;53.604;10.112;2022-12-20T15:34:09;7.00;;;5.10;;
3999;SDS011;2014;53.604;10.112;2022-12-20T15:36:39;5.20;;;4.80;;
3999;SDS011;2014;53.604;10.112;2022-12-20T15:39:08;6.17;;;5.57;;